Terminal Aerodrome Forecast
Issued by NWS Albany, NY

Home | Current Version | Previous Version | Text Only | Print | Product List | Glossary On
Versions: 1 2 3 4 5 6 7 8 9 10 11 12 13 14 15 16 17 18
000
FTUS41 KALY 191722
TAFPOU
TAF
KPOU 191722Z 1918/2018 12006KT P6SM SCT250
     FM200100 14006KT P6SM BKN150
     FM200700 14008KT P6SM VCSH BKN100 OVC150
     FM201100 08012KT 6SM SHRA BKN040 OVC090
     FM201400 11010G20KT 3SM RA OVC030=

USA.gov is the U.S. government's official web portal to all federal, state and local government web resources and services.